sensor_id;sensor_type;location;lat;lon;timestamp;P1;durP1;ratioP1;P2;durP2;ratioP2
177;SDS011;77;48.792;9.032;2023-02-28T00:00:06;8.50;;;5.05;;
177;SDS011;77;48.792;9.032;2023-02-28T00:02:32;8.93;;;5.40;;
177;SDS011;77;48.792;9.032;2023-02-28T00:04:57;11.43;;;5.60;;
177;SDS011;77;48.792;9.032;2023-02-28T00:07:22;8.90;;;5.30;;
177;SDS011;77;48.792;9.032;2023-02-28T00:09:47;13.57;;;5.13;;
177;SDS011;77;48.792;9.032;2023-02-28T00:12:12;9.20;;;5.40;;
177;SDS011;77;48.792;9.032;2023-02-28T00:14:39;9.33;;;5.10;;
177;SDS011;77;48.792;9.032;2023-02-28T00:17:04;7.82;;;4.93;;
177;SDS011;77;48.792;9.032;2023-02-28T00:19:29;9.10;;;5.50;;
177;SDS011;77;48.792;9.032;2023-02-28T00:21:54;10.67;;;5.40;;
177;SDS011;77;48.792;9.032;2023-02-28T00:24:20;9.10;;;4.97;;
177;SDS011;77;48.792;9.032;2023-02-28T00:26:45;10.17;;;5.37;;
177;SDS011;77;48.792;9.032;2023-02-28T00:29:10;9.20;;;5.23;;
177;SDS011;77;48.792;9.032;2023-02-28T00:31:36;10.50;;;5.50;;
177;SDS011;77;48.792;9.032;2023-02-28T00:34:02;8.20;;;5.10;;
177;SDS011;77;48.792;9.032;2023-02-28T00:36:27;7.27;;;4.90;;
177;SDS011;77;48.792;9.032;2023-02-28T00:38:52;8.00;;;4.73;;
177;SDS011;77;48.792;9.032;2023-02-28T00:41:17;8.60;;;5.00;;
177;SDS011;77;48.792;9.032;2023-02-28T00:43:42;9.27;;;5.33;;
177;SDS011;77;48.792;9.032;2023-02-28T00:46:07;8.93;;;5.13;;
177;SDS011;77;48.792;9.032;2023-02-28T00:48:34;11.17;;;5.87;;
177;SDS011;77;48.792;9.032;2023-02-28T00:50:59;10.07;;;5.80;;
177;SDS011;77;48.792;9.032;2023-02-28T00:53:25;8.90;;;5.00;;
177;SDS011;77;48.792;9.032;2023-02-28T00:55:50;9.63;;;5.47;;
177;SDS011;77;48.792;9.032;2023-02-28T00:58:15;7.53;;;5.13;;
177;SDS011;77;48.792;9.032;2023-02-28T01:00:41;7.33;;;4.90;;
177;SDS011;77;48.792;9.032;2023-02-28T01:03:06;9.83;;;5.70;;
177;SDS011;77;48.792;9.032;2023-02-28T01:05:32;9.80;;;5.40;;
177;SDS011;77;48.792;9.032;2023-02-28T01:07:57;9.27;;;5.70;;
177;SDS011;77;48.792;9.032;2023-02-28T01:10:23;11.13;;;6.17;;
177;SDS011;77;48.792;9.032;2023-02-28T01:12:48;10.33;;;6.33;;
177;SDS011;77;48.792;9.032;2023-02-28T01:15:13;10.83;;;6.00;;
177;SDS011;77;48.792;9.032;2023-02-28T01:17:38;9.83;;;5.80;;
177;SDS011;77;48.792;9.032;2023-02-28T01:20:04;11.60;;;6.40;;
177;SDS011;77;48.792;9.032;2023-02-28T01:22:30;11.10;;;6.50;;
177;SDS011;77;48.792;9.032;2023-02-28T01:24:56;8.70;;;5.70;;
177;SDS011;77;48.792;9.032;2023-02-28T01:27:21;11.13;;;6.30;;
177;SDS011;77;48.792;9.032;2023-02-28T01:29:46;10.63;;;6.20;;
177;SDS011;77;48.792;9.032;2023-02-28T01:32:11;12.33;;;6.10;;
177;SDS011;77;48.792;9.032;2023-02-28T01:34:36;10.03;;;6.30;;
177;SDS011;77;48.792;9.032;2023-02-28T01:37:01;14.70;;;6.60;;
177;SDS011;77;48.792;9.032;2023-02-28T01:39:28;9.63;;;5.97;;
177;SDS011;77;48.792;9.032;2023-02-28T01:41:53;9.57;;;6.05;;
177;SDS011;77;48.792;9.032;2023-02-28T01:47:02;11.15;;;6.68;;
177;SDS011;77;48.792;9.032;2023-02-28T01:49:27;16.30;;;6.50;;
177;SDS011;77;48.792;9.032;2023-02-28T01:51:53;10.93;;;6.63;;
177;SDS011;77;48.792;9.032;2023-02-28T01:54:20;11.00;;;6.63;;
177;SDS011;77;48.792;9.032;2023-02-28T01:56:49;11.05;;;6.70;;
177;SDS011;77;48.792;9.032;2023-02-28T01:59:19;10.95;;;6.45;;
177;SDS011;77;48.792;9.032;2023-02-28T02:01:46;13.68;;;6.80;;
177;SDS011;77;48.792;9.032;2023-02-28T02:04:11;12.00;;;7.50;;
177;SDS011;77;48.792;9.032;2023-02-28T02:06:37;11.03;;;6.77;;
177;SDS011;77;48.792;9.032;2023-02-28T02:09:03;12.50;;;6.50;;
177;SDS011;77;48.792;9.032;2023-02-28T02:11:28;11.40;;;6.60;;
177;SDS011;77;48.792;9.032;2023-02-28T02:13:59;12.70;;;6.53;;
177;SDS011;77;48.792;9.032;2023-02-28T02:16:30;12.73;;;6.70;;
177;SDS011;77;48.792;9.032;2023-02-28T02:19:00;14.32;;;6.70;;
177;SDS011;77;48.792;9.032;2023-02-28T02:21:35;13.93;;;7.47;;
177;SDS011;77;48.792;9.032;2023-02-28T02:24:14;11.60;;;6.85;;
177;SDS011;77;48.792;9.032;2023-02-28T02:26:52;11.98;;;7.50;;
177;SDS011;77;48.792;9.032;2023-02-28T02:29:31;10.10;;;6.53;;
177;SDS011;77;48.792;9.032;2023-02-28T02:32:15;12.10;;;7.10;;
177;SDS011;77;48.792;9.032;2023-02-28T02:34:51;12.85;;;7.20;;
177;SDS011;77;48.792;9.032;2023-02-28T02:37:21;13.27;;;7.25;;
177;SDS011;77;48.792;9.032;2023-02-28T02:39:51;12.82;;;7.20;;
177;SDS011;77;48.792;9.032;2023-02-28T02:42:20;11.75;;;7.57;;
177;SDS011;77;48.792;9.032;2023-02-28T02:44:47;11.18;;;7.10;;
177;SDS011;77;48.792;9.032;2023-02-28T02:47:15;12.13;;;7.85;;
177;SDS011;77;48.792;9.032;2023-02-28T02:49:42;12.07;;;7.10;;
177;SDS011;77;48.792;9.032;2023-02-28T02:52:10;14.73;;;7.72;;
177;SDS011;77;48.792;9.032;2023-02-28T02:54:37;12.70;;;6.90;;
177;SDS011;77;48.792;9.032;2023-02-28T02:57:05;12.65;;;7.32;;
177;SDS011;77;48.792;9.032;2023-02-28T02:59:31;16.38;;;8.38;;
177;SDS011;77;48.792;9.032;2023-02-28T03:01:57;13.07;;;8.00;;
177;SDS011;77;48.792;9.032;2023-02-28T03:04:25;13.65;;;7.20;;
177;SDS011;77;48.792;9.032;2023-02-28T03:06:52;12.52;;;7.22;;
177;SDS011;77;48.792;9.032;2023-02-28T03:09:18;12.97;;;7.90;;
177;SDS011;77;48.792;9.032;2023-02-28T03:11:43;12.43;;;7.50;;
177;SDS011;77;48.792;9.032;2023-02-28T03:14:11;12.77;;;7.70;;
177;SDS011;77;48.792;9.032;2023-02-28T03:16:48;13.20;;;7.28;;
177;SDS011;77;48.792;9.032;2023-02-28T03:19:19;12.35;;;7.43;;
177;SDS011;77;48.792;9.032;2023-02-28T03:21:50;13.23;;;7.85;;
177;SDS011;77;48.792;9.032;2023-02-28T03:24:21;12.57;;;7.90;;
177;SDS011;77;48.792;9.032;2023-02-28T03:26:50;13.15;;;7.97;;
177;SDS011;77;48.792;9.032;2023-02-28T03:29:18;16.02;;;7.40;;
177;SDS011;77;48.792;9.032;2023-02-28T03:31:48;15.77;;;8.25;;
177;SDS011;77;48.792;9.032;2023-02-28T03:34:14;11.75;;;7.55;;
177;SDS011;77;48.792;9.032;2023-02-28T03:36:41;15.00;;;8.50;;
177;SDS011;77;48.792;9.032;2023-02-28T03:39:08;14.45;;;7.80;;
177;SDS011;77;48.792;9.032;2023-02-28T03:41:36;13.85;;;8.25;;
177;SDS011;77;48.792;9.032;2023-02-28T03:44:04;12.75;;;7.90;;
177;SDS011;77;48.792;9.032;2023-02-28T03:46:31;13.77;;;8.32;;
177;SDS011;77;48.792;9.032;2023-02-28T03:49:00;15.48;;;8.20;;
177;SDS011;77;48.792;9.032;2023-02-28T03:51:27;15.10;;;8.07;;
177;SDS011;77;48.792;9.032;2023-02-28T03:53:53;14.93;;;8.10;;
177;SDS011;77;48.792;9.032;2023-02-28T03:56:20;13.75;;;8.50;;
177;SDS011;77;48.792;9.032;2023-02-28T03:58:49;14.60;;;8.52;;
177;SDS011;77;48.792;9.032;2023-02-28T04:01:16;13.45;;;8.30;;
177;SDS011;77;48.792;9.032;2023-02-28T04:03:43;15.45;;;9.15;;
177;SDS011;77;48.792;9.032;2023-02-28T04:06:13;15.30;;;8.30;;
177;SDS011;77;48.792;9.032;2023-02-28T04:08:39;13.25;;;8.30;;
177;SDS011;77;48.792;9.032;2023-02-28T04:11:06;14.43;;;8.40;;
177;SDS011;77;48.792;9.032;2023-02-28T04:13:33;12.48;;;7.80;;
177;SDS011;77;48.792;9.032;2023-02-28T04:16:00;12.90;;;7.50;;
177;SDS011;77;48.792;9.032;2023-02-28T04:18:25;15.18;;;8.30;;
177;SDS011;77;48.792;9.032;2023-02-28T04:20:50;14.13;;;8.60;;
177;SDS011;77;48.792;9.032;2023-02-28T04:23:15;14.00;;;8.43;;
177;SDS011;77;48.792;9.032;2023-02-28T04:25:40;15.30;;;8.37;;
177;SDS011;77;48.792;9.032;2023-02-28T04:28:06;13.97;;;8.00;;
177;SDS011;77;48.792;9.032;2023-02-28T04:30:31;13.73;;;8.73;;
177;SDS011;77;48.792;9.032;2023-02-28T04:32:57;16.80;;;8.10;;
177;SDS011;77;48.792;9.032;2023-02-28T04:35:22;15.88;;;8.20;;
177;SDS011;77;48.792;9.032;2023-02-28T04:37:48;13.17;;;8.10;;
177;SDS011;77;48.792;9.032;2023-02-28T04:40:13;14.90;;;8.50;;
177;SDS011;77;48.792;9.032;2023-02-28T04:42:38;14.63;;;8.40;;
177;SDS011;77;48.792;9.032;2023-02-28T04:45:03;15.40;;;9.07;;
177;SDS011;77;48.792;9.032;2023-02-28T04:47:29;16.23;;;8.70;;
177;SDS011;77;48.792;9.032;2023-02-28T04:49:55;18.70;;;9.23;;
177;SDS011;77;48.792;9.032;2023-02-28T04:52:20;14.82;;;8.60;;
177;SDS011;77;48.792;9.032;2023-02-28T04:54:46;15.60;;;8.80;;
177;SDS011;77;48.792;9.032;2023-02-28T04:57:11;14.17;;;8.40;;
177;SDS011;77;48.792;9.032;2023-02-28T04:59:36;14.03;;;8.63;;
177;SDS011;77;48.792;9.032;2023-02-28T05:02:01;17.90;;;8.80;;
177;SDS011;77;48.792;9.032;2023-02-28T05:04:26;14.57;;;8.80;;
177;SDS011;77;48.792;9.032;2023-02-28T05:06:53;13.77;;;8.10;;
177;SDS011;77;48.792;9.032;2023-02-28T05:09:18;13.95;;;8.85;;
177;SDS011;77;48.792;9.032;2023-02-28T05:11:43;16.60;;;8.67;;
177;SDS011;77;48.792;9.032;2023-02-28T05:14:09;15.13;;;8.10;;
177;SDS011;77;48.792;9.032;2023-02-28T05:16:35;12.73;;;8.10;;
177;SDS011;77;48.792;9.032;2023-02-28T05:19:00;15.00;;;8.00;;
177;SDS011;77;48.792;9.032;2023-02-28T05:21:27;13.13;;;8.43;;
177;SDS011;77;48.792;9.032;2023-02-28T05:23:54;16.10;;;9.43;;
177;SDS011;77;48.792;9.032;2023-02-28T05:26:19;16.67;;;9.18;;
177;SDS011;77;48.792;9.032;2023-02-28T05:28:44;15.37;;;9.23;;
177;SDS011;77;48.792;9.032;2023-02-28T05:31:10;15.43;;;9.07;;
177;SDS011;77;48.792;9.032;2023-02-28T05:33:35;14.97;;;9.17;;
177;SDS011;77;48.792;9.032;2023-02-28T05:36:00;13.33;;;8.67;;
177;SDS011;77;48.792;9.032;2023-02-28T05:38:25;15.63;;;9.60;;
177;SDS011;77;48.792;9.032;2023-02-28T05:40:52;18.70;;;9.70;;
177;SDS011;77;48.792;9.032;2023-02-28T05:43:17;15.48;;;8.80;;
177;SDS011;77;48.792;9.032;2023-02-28T05:45:42;16.53;;;8.97;;
177;SDS011;77;48.792;9.032;2023-02-28T05:48:07;17.27;;;9.40;;
177;SDS011;77;48.792;9.032;2023-02-28T05:50:33;15.20;;;9.20;;
177;SDS011;77;48.792;9.032;2023-02-28T05:52:58;14.47;;;8.53;;
177;SDS011;77;48.792;9.032;2023-02-28T05:55:23;19.60;;;10.00;;
177;SDS011;77;48.792;9.032;2023-02-28T05:57:49;15.43;;;9.50;;
177;SDS011;77;48.792;9.032;2023-02-28T06:00:15;17.13;;;9.38;;
177;SDS011;77;48.792;9.032;2023-02-28T06:02:40;17.30;;;9.90;;
177;SDS011;77;48.792;9.032;2023-02-28T06:05:07;18.53;;;9.97;;
177;SDS011;77;48.792;9.032;2023-02-28T06:07:33;17.83;;;9.70;;
177;SDS011;77;48.792;9.032;2023-02-28T06:09:58;16.60;;;9.13;;
177;SDS011;77;48.792;9.032;2023-02-28T06:12:23;18.70;;;9.50;;
177;SDS011;77;48.792;9.032;2023-02-28T06:14:50;14.57;;;9.00;;
177;SDS011;77;48.792;9.032;2023-02-28T06:17:15;20.77;;;9.55;;
177;SDS011;77;48.792;9.032;2023-02-28T06:19:40;17.90;;;10.13;;
177;SDS011;77;48.792;9.032;2023-02-28T06:22:05;18.50;;;9.97;;
177;SDS011;77;48.792;9.032;2023-02-28T06:24:30;16.73;;;10.00;;
177;SDS011;77;48.792;9.032;2023-02-28T06:26:55;16.77;;;9.47;;
177;SDS011;77;48.792;9.032;2023-02-28T06:29:21;21.30;;;9.90;;
177;SDS011;77;48.792;9.032;2023-02-28T06:31:47;17.63;;;9.93;;
177;SDS011;77;48.792;9.032;2023-02-28T06:34:13;17.13;;;10.30;;
177;SDS011;77;48.792;9.032;2023-02-28T06:36:38;17.23;;;10.20;;
177;SDS011;77;48.792;9.032;2023-02-28T06:39:04;19.90;;;10.80;;
177;SDS011;77;48.792;9.032;2023-02-28T06:41:29;16.00;;;9.87;;
177;SDS011;77;48.792;9.032;2023-02-28T06:43:54;17.90;;;10.10;;
177;SDS011;77;48.792;9.032;2023-02-28T06:46:19;20.90;;;10.50;;
177;SDS011;77;48.792;9.032;2023-02-28T06:48:46;18.30;;;10.27;;
177;SDS011;77;48.792;9.032;2023-02-28T06:51:12;17.98;;;9.88;;
177;SDS011;77;48.792;9.032;2023-02-28T06:53:38;17.73;;;10.50;;
177;SDS011;77;48.792;9.032;2023-02-28T06:56:04;18.67;;;10.60;;
177;SDS011;77;48.792;9.032;2023-02-28T06:58:29;16.47;;;10.20;;
177;SDS011;77;48.792;9.032;2023-02-28T07:00:54;20.90;;;10.93;;
177;SDS011;77;48.792;9.032;2023-02-28T07:03:20;17.13;;;10.33;;
177;SDS011;77;48.792;9.032;2023-02-28T07:05:46;20.57;;;10.27;;
177;SDS011;77;48.792;9.032;2023-02-28T07:08:11;18.13;;;10.77;;
177;SDS011;77;48.792;9.032;2023-02-28T07:10:37;18.40;;;10.53;;
177;SDS011;77;48.792;9.032;2023-02-28T07:13:03;17.97;;;10.60;;
177;SDS011;77;48.792;9.032;2023-02-28T07:15:28;18.75;;;10.23;;
177;SDS011;77;48.792;9.032;2023-02-28T07:17:54;21.33;;;10.50;;
177;SDS011;77;48.792;9.032;2023-02-28T07:20:19;17.50;;;9.97;;
177;SDS011;77;48.792;9.032;2023-02-28T07:22:45;18.70;;;10.00;;
177;SDS011;77;48.792;9.032;2023-02-28T07:25:10;17.58;;;10.07;;
177;SDS011;77;48.792;9.032;2023-02-28T07:27:36;18.20;;;10.63;;
177;SDS011;77;48.792;9.032;2023-02-28T07:30:01;18.40;;;10.63;;
177;SDS011;77;48.792;9.032;2023-02-28T07:32:26;17.23;;;10.27;;
177;SDS011;77;48.792;9.032;2023-02-28T07:34:51;16.87;;;10.33;;
177;SDS011;77;48.792;9.032;2023-02-28T07:37:16;23.50;;;11.20;;
177;SDS011;77;48.792;9.032;2023-02-28T07:39:43;19.10;;;11.27;;
177;SDS011;77;48.792;9.032;2023-02-28T07:42:08;17.65;;;10.38;;
177;SDS011;77;48.792;9.032;2023-02-28T07:44:33;19.03;;;10.70;;
177;SDS011;77;48.792;9.032;2023-02-28T07:46:58;18.63;;;10.63;;
177;SDS011;77;48.792;9.032;2023-02-28T07:49:24;18.40;;;10.33;;
177;SDS011;77;48.792;9.032;2023-02-28T07:51:49;19.63;;;10.77;;
177;SDS011;77;48.792;9.032;2023-02-28T07:54:14;20.30;;;11.00;;
177;SDS011;77;48.792;9.032;2023-02-28T07:56:41;17.50;;;9.50;;
177;SDS011;77;48.792;9.032;2023-02-28T07:59:06;21.88;;;10.65;;
177;SDS011;77;48.792;9.032;2023-02-28T08:01:31;18.87;;;11.20;;
177;SDS011;77;48.792;9.032;2023-02-28T08:03:56;19.10;;;10.90;;
177;SDS011;77;48.792;9.032;2023-02-28T08:06:22;19.93;;;11.60;;
177;SDS011;77;48.792;9.032;2023-02-28T08:08:48;21.65;;;11.60;;
177;SDS011;77;48.792;9.032;2023-02-28T08:11:13;19.93;;;11.27;;
177;SDS011;77;48.792;9.032;2023-02-28T08:13:40;20.13;;;11.43;;
177;SDS011;77;48.792;9.032;2023-02-28T08:16:06;22.13;;;11.75;;
177;SDS011;77;48.792;9.032;2023-02-28T08:18:31;18.40;;;10.90;;
177;SDS011;77;48.792;9.032;2023-02-28T08:20:57;19.30;;;11.48;;
177;SDS011;77;48.792;9.032;2023-02-28T08:23:22;20.83;;;11.77;;
177;SDS011;77;48.792;9.032;2023-02-28T08:25:52;20.67;;;11.70;;
177;SDS011;77;48.792;9.032;2023-02-28T08:28:17;25.02;;;11.77;;
177;SDS011;77;48.792;9.032;2023-02-28T08:30:44;19.30;;;11.30;;
177;SDS011;77;48.792;9.032;2023-02-28T08:33:09;20.98;;;11.20;;
177;SDS011;77;48.792;9.032;2023-02-28T08:35:35;20.03;;;11.70;;
177;SDS011;77;48.792;9.032;2023-02-28T08:38:00;21.40;;;11.23;;
177;SDS011;77;48.792;9.032;2023-02-28T08:40:25;20.50;;;12.50;;
177;SDS011;77;48.792;9.032;2023-02-28T08:42:51;21.73;;;12.40;;
177;SDS011;77;48.792;9.032;2023-02-28T08:45:16;19.30;;;11.60;;
177;SDS011;77;48.792;9.032;2023-02-28T08:47:42;21.20;;;11.47;;
177;SDS011;77;48.792;9.032;2023-02-28T08:50:08;20.60;;;11.68;;
177;SDS011;77;48.792;9.032;2023-02-28T08:52:33;22.40;;;11.70;;
177;SDS011;77;48.792;9.032;2023-02-28T08:54:59;19.30;;;11.63;;
177;SDS011;77;48.792;9.032;2023-02-28T08:57:24;21.17;;;12.07;;
177;SDS011;77;48.792;9.032;2023-02-28T08:59:49;20.57;;;11.60;;
177;SDS011;77;48.792;9.032;2023-02-28T09:02:14;21.40;;;12.03;;
177;SDS011;77;48.792;9.032;2023-02-28T09:04:41;22.63;;;12.60;;
177;SDS011;77;48.792;9.032;2023-02-28T09:07:06;21.60;;;11.88;;
177;SDS011;77;48.792;9.032;2023-02-28T09:09:31;24.17;;;13.17;;
177;SDS011;77;48.792;9.032;2023-02-28T09:11:57;24.73;;;13.00;;
177;SDS011;77;48.792;9.032;2023-02-28T09:14:22;19.17;;;11.50;;
177;SDS011;77;48.792;9.032;2023-02-28T09:16:47;21.73;;;12.20;;
177;SDS011;77;48.792;9.032;2023-02-28T09:19:13;25.40;;;13.00;;
177;SDS011;77;48.792;9.032;2023-02-28T09:21:39;21.73;;;12.27;;
177;SDS011;77;48.792;9.032;2023-02-28T09:24:05;21.08;;;12.15;;
177;SDS011;77;48.792;9.032;2023-02-28T09:26:30;24.30;;;13.27;;
177;SDS011;77;48.792;9.032;2023-02-28T09:28:55;22.83;;;13.10;;
177;SDS011;77;48.792;9.032;2023-02-28T09:31:21;27.53;;;13.43;;
177;SDS011;77;48.792;9.032;2023-02-28T09:33:47;22.08;;;13.20;;
177;SDS011;77;48.792;9.032;2023-02-28T09:36:12;22.17;;;13.00;;
177;SDS011;77;48.792;9.032;2023-02-28T09:38:39;22.90;;;13.80;;
177;SDS011;77;48.792;9.032;2023-02-28T09:41:08;23.90;;;13.45;;
177;SDS011;77;48.792;9.032;2023-02-28T09:43:35;23.40;;;13.03;;
177;SDS011;77;48.792;9.032;2023-02-28T09:46:06;23.48;;;13.75;;
177;SDS011;77;48.792;9.032;2023-02-28T09:48:33;23.27;;;13.90;;
177;SDS011;77;48.792;9.032;2023-02-28T09:51:00;24.85;;;13.23;;
177;SDS011;77;48.792;9.032;2023-02-28T09:53:28;23.03;;;13.47;;
177;SDS011;77;48.792;9.032;2023-02-28T09:55:55;20.60;;;12.77;;
177;SDS011;77;48.792;9.032;2023-02-28T09:58:23;21.87;;;13.37;;
177;SDS011;77;48.792;9.032;2023-02-28T10:00:56;22.70;;;13.23;;
177;SDS011;77;48.792;9.032;2023-02-28T10:03:27;21.27;;;13.10;;
177;SDS011;77;48.792;9.032;2023-02-28T10:05:54;20.67;;;12.80;;
177;SDS011;77;48.792;9.032;2023-02-28T10:08:22;25.33;;;13.60;;
177;SDS011;77;48.792;9.032;2023-02-28T10:10:49;22.30;;;13.80;;
177;SDS011;77;48.792;9.032;2023-02-28T10:13:19;23.43;;;13.47;;
177;SDS011;77;48.792;9.032;2023-02-28T10:15:45;23.33;;;13.67;;
177;SDS011;77;48.792;9.032;2023-02-28T10:18:12;27.90;;;14.17;;
177;SDS011;77;48.792;9.032;2023-02-28T10:20:39;26.33;;;14.37;;
177;SDS011;77;48.792;9.032;2023-02-28T10:23:07;22.20;;;13.60;;
177;SDS011;77;48.792;9.032;2023-02-28T10:25:35;24.87;;;13.93;;
177;SDS011;77;48.792;9.032;2023-02-28T10:28:01;23.73;;;13.40;;
177;SDS011;77;48.792;9.032;2023-02-28T10:30:31;23.47;;;13.33;;
177;SDS011;77;48.792;9.032;2023-02-28T10:32:56;25.70;;;14.53;;
177;SDS011;77;48.792;9.032;2023-02-28T10:35:22;22.53;;;14.30;;
177;SDS011;77;48.792;9.032;2023-02-28T10:37:48;23.53;;;13.43;;
177;SDS011;77;48.792;9.032;2023-02-28T10:40:25;24.63;;;14.30;;
177;SDS011;77;48.792;9.032;2023-02-28T10:42:54;23.00;;;14.07;;
177;SDS011;77;48.792;9.032;2023-02-28T10:45:19;23.40;;;13.67;;
177;SDS011;77;48.792;9.032;2023-02-28T10:47:51;28.00;;;15.67;;
177;SDS011;77;48.792;9.032;2023-02-28T10:50:26;24.93;;;14.90;;
177;SDS011;77;48.792;9.032;2023-02-28T10:52:52;22.93;;;13.90;;
177;SDS011;77;48.792;9.032;2023-02-28T10:55:21;28.83;;;14.77;;
177;SDS011;77;48.792;9.032;2023-02-28T10:57:46;22.60;;;13.73;;
177;SDS011;77;48.792;9.032;2023-02-28T11:00:14;22.37;;;14.30;;
177;SDS011;77;48.792;9.032;2023-02-28T11:02:39;23.60;;;14.40;;
177;SDS011;77;48.792;9.032;2023-02-28T11:07:51;24.10;;;14.00;;
177;SDS011;77;48.792;9.032;2023-02-28T11:10:18;26.60;;;14.87;;
177;SDS011;77;48.792;9.032;2023-02-28T11:12:44;20.70;;;14.10;;
177;SDS011;77;48.792;9.032;2023-02-28T11:15:18;24.40;;;14.67;;
177;SDS011;77;48.792;9.032;2023-02-28T11:17:52;23.70;;;14.77;;
177;SDS011;77;48.792;9.032;2023-02-28T11:22:43;23.03;;;14.50;;
177;SDS011;77;48.792;9.032;2023-02-28T11:25:16;21.13;;;13.67;;
177;SDS011;77;48.792;9.032;2023-02-28T11:27:48;23.27;;;14.67;;
177;SDS011;77;48.792;9.032;2023-02-28T11:30:27;24.67;;;15.13;;
177;SDS011;77;48.792;9.032;2023-02-28T11:32:52;21.80;;;14.23;;
177;SDS011;77;48.792;9.032;2023-02-28T11:35:18;22.03;;;14.10;;
177;SDS011;77;48.792;9.032;2023-02-28T11:37:46;23.23;;;14.53;;
177;SDS011;77;48.792;9.032;2023-02-28T11:40:13;28.83;;;14.63;;
177;SDS011;77;48.792;9.032;2023-02-28T11:42:43;24.13;;;15.03;;
177;SDS011;77;48.792;9.032;2023-02-28T11:45:16;21.20;;;14.00;;
177;SDS011;77;48.792;9.032;2023-02-28T11:47:44;21.53;;;14.20;;
177;SDS011;77;48.792;9.032;2023-02-28T11:50:16;21.43;;;14.70;;
177;SDS011;77;48.792;9.032;2023-02-28T11:52:43;22.83;;;15.00;;
177;SDS011;77;48.792;9.032;2023-02-28T11:55:15;23.40;;;15.30;;
177;SDS011;77;48.792;9.032;2023-02-28T11:57:54;22.90;;;13.87;;
177;SDS011;77;48.792;9.032;2023-02-28T12:00:27;22.37;;;14.57;;
177;SDS011;77;48.792;9.032;2023-02-28T12:02:58;20.13;;;13.90;;
177;SDS011;77;48.792;9.032;2023-02-28T12:05:28;21.90;;;14.53;;
177;SDS011;77;48.792;9.032;2023-02-28T12:08:00;20.37;;;14.40;;
177;SDS011;77;48.792;9.032;2023-02-28T12:10:29;20.70;;;13.77;;
177;SDS011;77;48.792;9.032;2023-02-28T12:13:05;22.77;;;14.43;;
177;SDS011;77;48.792;9.032;2023-02-28T12:15:44;20.10;;;13.80;;
177;SDS011;77;48.792;9.032;2023-02-28T12:18:18;19.20;;;13.40;;
177;SDS011;77;48.792;9.032;2023-02-28T12:20:49;18.57;;;13.87;;
177;SDS011;77;48.792;9.032;2023-02-28T12:23:22;22.30;;;15.07;;
177;SDS011;77;48.792;9.032;2023-02-28T12:25:54;19.63;;;14.00;;
177;SDS011;77;48.792;9.032;2023-02-28T12:28:21;21.80;;;14.87;;
177;SDS011;77;48.792;9.032;2023-02-28T12:30:50;21.67;;;14.70;;
177;SDS011;77;48.792;9.032;2023-02-28T12:33:16;22.30;;;14.90;;
177;SDS011;77;48.792;9.032;2023-02-28T12:35:44;19.57;;;13.50;;
177;SDS011;77;48.792;9.032;2023-02-28T12:38:12;20.60;;;14.10;;
177;SDS011;77;48.792;9.032;2023-02-28T12:40:42;18.83;;;13.47;;
177;SDS011;77;48.792;9.032;2023-02-28T12:43:09;19.20;;;14.20;;
177;SDS011;77;48.792;9.032;2023-02-28T12:45:39;22.17;;;13.70;;
177;SDS011;77;48.792;9.032;2023-02-28T12:48:06;19.60;;;13.50;;
177;SDS011;77;48.792;9.032;2023-02-28T12:50:32;21.83;;;14.87;;
177;SDS011;77;48.792;9.032;2023-02-28T12:52:59;21.47;;;14.10;;
177;SDS011;77;48.792;9.032;2023-02-28T12:55:27;23.97;;;14.63;;
177;SDS011;77;48.792;9.032;2023-02-28T12:57:56;19.27;;;13.90;;
177;SDS011;77;48.792;9.032;2023-02-28T13:00:25;21.73;;;14.97;;
177;SDS011;77;48.792;9.032;2023-02-28T13:02:58;20.63;;;13.97;;
177;SDS011;77;48.792;9.032;2023-02-28T13:08:12;18.80;;;12.73;;
177;SDS011;77;48.792;9.032;2023-02-28T13:10:46;17.50;;;12.60;;
177;SDS011;77;48.792;9.032;2023-02-28T13:13:15;18.73;;;13.03;;
177;SDS011;77;48.792;9.032;2023-02-28T13:15:42;17.70;;;12.70;;
177;SDS011;77;48.792;9.032;2023-02-28T13:18:27;20.70;;;13.53;;
177;SDS011;77;48.792;9.032;2023-02-28T13:20:53;19.60;;;12.80;;
177;SDS011;77;48.792;9.032;2023-02-28T13:25:58;22.73;;;13.87;;
177;SDS011;77;48.792;9.032;2023-02-28T13:31:14;18.30;;;13.00;;
177;SDS011;77;48.792;9.032;2023-02-28T13:36:24;19.97;;;13.27;;
177;SDS011;77;48.792;9.032;2023-02-28T13:38:50;19.30;;;13.30;;
177;SDS011;77;48.792;9.032;2023-02-28T13:44:01;18.03;;;13.07;;
177;SDS011;77;48.792;9.032;2023-02-28T13:46:29;19.80;;;13.30;;
177;SDS011;77;48.792;9.032;2023-02-28T13:48:54;18.83;;;12.57;;
177;SDS011;77;48.792;9.032;2023-02-28T13:51:37;18.27;;;13.07;;
177;SDS011;77;48.792;9.032;2023-02-28T13:54:03;17.10;;;12.57;;
177;SDS011;77;48.792;9.032;2023-02-28T13:56:36;16.90;;;12.13;;
177;SDS011;77;48.792;9.032;2023-02-28T13:59:06;17.60;;;12.37;;
177;SDS011;77;48.792;9.032;2023-02-28T14:01:49;16.13;;;11.93;;
177;SDS011;77;48.792;9.032;2023-02-28T14:06:55;17.27;;;12.57;;
177;SDS011;77;48.792;9.032;2023-02-28T14:09:23;18.40;;;12.20;;
177;SDS011;77;48.792;9.032;2023-02-28T14:11:50;18.30;;;12.00;;
177;SDS011;77;48.792;9.032;2023-02-28T14:16:57;16.33;;;12.70;;
177;SDS011;77;48.792;9.032;2023-02-28T14:19:23;17.40;;;12.33;;
177;SDS011;77;48.792;9.032;2023-02-28T14:21:53;15.83;;;11.50;;
177;SDS011;77;48.792;9.032;2023-02-28T14:24:35;16.27;;;11.80;;
177;SDS011;77;48.792;9.032;2023-02-28T14:27:21;16.23;;;11.63;;
177;SDS011;77;48.792;9.032;2023-02-28T14:32:35;15.27;;;11.60;;
177;SDS011;77;48.792;9.032;2023-02-28T14:35:09;14.30;;;11.60;;
177;SDS011;77;48.792;9.032;2023-02-28T14:37:37;16.03;;;11.57;;
177;SDS011;77;48.792;9.032;2023-02-28T14:40:03;16.57;;;12.33;;
177;SDS011;77;48.792;9.032;2023-02-28T14:42:29;18.13;;;12.30;;
177;SDS011;77;48.792;9.032;2023-02-28T14:44:55;17.63;;;12.60;;
177;SDS011;77;48.792;9.032;2023-02-28T14:47:20;15.60;;;11.80;;
177;SDS011;77;48.792;9.032;2023-02-28T14:49:47;15.30;;;11.60;;
177;SDS011;77;48.792;9.032;2023-02-28T14:52:14;17.07;;;11.43;;
177;SDS011;77;48.792;9.032;2023-02-28T14:54:40;17.17;;;12.20;;
177;SDS011;77;48.792;9.032;2023-02-28T14:57:05;16.23;;;11.67;;
177;SDS011;77;48.792;9.032;2023-02-28T14:59:32;16.23;;;11.70;;
177;SDS011;77;48.792;9.032;2023-02-28T15:02:19;21.43;;;12.73;;
177;SDS011;77;48.792;9.032;2023-02-28T15:04:53;17.10;;;12.90;;
177;SDS011;77;48.792;9.032;2023-02-28T15:07:18;19.20;;;12.80;;
177;SDS011;77;48.792;9.032;2023-02-28T15:09:43;18.50;;;13.10;;
177;SDS011;77;48.792;9.032;2023-02-28T15:12:09;19.17;;;13.27;;
177;SDS011;77;48.792;9.032;2023-02-28T15:14:38;17.00;;;12.30;;
177;SDS011;77;48.792;9.032;2023-02-28T15:17:07;17.37;;;12.37;;
177;SDS011;77;48.792;9.032;2023-02-28T15:19:34;17.57;;;12.80;;
177;SDS011;77;48.792;9.032;2023-02-28T15:22:04;16.33;;;12.50;;
177;SDS011;77;48.792;9.032;2023-02-28T15:24:31;18.97;;;12.30;;
177;SDS011;77;48.792;9.032;2023-02-28T15:27:02;19.30;;;12.60;;
177;SDS011;77;48.792;9.032;2023-02-28T15:29:28;19.93;;;12.43;;
177;SDS011;77;48.792;9.032;2023-02-28T15:31:56;18.67;;;12.93;;
177;SDS011;77;48.792;9.032;2023-02-28T15:34:34;19.03;;;12.90;;
177;SDS011;77;48.792;9.032;2023-02-28T15:37:00;18.60;;;13.13;;
177;SDS011;77;48.792;9.032;2023-02-28T15:39:28;21.00;;;13.03;;
177;SDS011;77;48.792;9.032;2023-02-28T15:44:33;20.07;;;13.13;;
177;SDS011;77;48.792;9.032;2023-02-28T15:46:59;19.03;;;12.87;;
177;SDS011;77;48.792;9.032;2023-02-28T15:49:26;19.87;;;13.30;;
177;SDS011;77;48.792;9.032;2023-02-28T15:51:51;20.07;;;13.50;;
177;SDS011;77;48.792;9.032;2023-02-28T15:54:19;18.93;;;13.43;;
177;SDS011;77;48.792;9.032;2023-02-28T15:56:47;22.07;;;14.60;;
177;SDS011;77;48.792;9.032;2023-02-28T15:59:15;19.37;;;13.60;;
177;SDS011;77;48.792;9.032;2023-02-28T16:01:41;18.43;;;13.53;;
177;SDS011;77;48.792;9.032;2023-02-28T16:04:11;19.67;;;13.57;;
177;SDS011;77;48.792;9.032;2023-02-28T16:06:39;20.80;;;13.83;;
177;SDS011;77;48.792;9.032;2023-02-28T16:09:06;20.00;;;13.93;;